Black Brook, Wisconsin
Current Conditions -  °F | °C
As of 2:55 AM on Wednesday 26 Nov 2014 (Local Time) from KRNH Reporting Station
Overcast Overcast  
Wind Chill: -9°   Ceiling: 7500
Heat Index: -5°   Visibility: 10mi
Dew Point: -9°   Wind: 6mph
Humidity: 74%   Direction: 100°E
Pressure: 30.06"   Gusts: NA
Location:  45.2417°N, 92.2543°W
Report Text: KRNH 260855Z AUTO 10005KT 10SM OVC075 M05/M09 A3006 RMK AO2 T10511090
Loading
Personal Weather Stations






























Interactive Weather Map New forecast layout! Learn more

10-Day Weather Forecast

Advertisements
Track Severe Weather on mobile